<?xml version="1.0" encoding="UTF-8" standalone="no" ?>
<gpx xmlns="http://www.topografix.com/GPX/1/1" xmlns:xsi="http://www.w3.org/2001/XMLSchema-instance" xsi:schemaLocation="http://www.topografix.com/GPX/1/1 http://www.topografix.com/GPX/1/1/gpx.xsd" version="1.1" creator="VisuGPX - https://www.visugpx.com">
  <metadata>
    <name>CascadeDeLaPicheSentiersEtHor-sentier</name>
    <desc><![CDATA[toujours pour comprendre ou sa passe, ou sa passait (il y à 15 ans, et même 30ans quand on l'a fait avec Sophie et Guilhem)]]></desc>
  </metadata>
  <wpt lat="44.33744" lon="6.43151">
    <ele>1671.8</ele>
    <name><![CDATA[xXWCXPIZ--.1.jpg]]></name>
  </wpt>
  <wpt lat="44.33627" lon="6.42679">
    <ele>1672.4</ele>
    <name><![CDATA[xXWCVrto--.1.jpg]]></name>
  </wpt>
  <wpt lat="44.33641" lon="6.42906">
    <ele>1699.9</ele>
    <name><![CDATA[xXWCXDwR--.1.jpg]]></name>
  </wpt>
  <wpt lat="44.33666" lon="6.43226">
    <ele>1732.8</ele>
    <name><![CDATA[xXWCXL9y--.1.jpg]]></name>
  </wpt>
  <trk>
    <name><![CDATA[CascadeDeLaPicheSentiersEtHor-sentier_2]]></name>
    <trkseg>
      <trkpt lat="44.3363" lon="6.42718">
        <ele>1723.539</ele>
        <time>2020-10-07T10:30:38Z</time>
      </trkpt>
      <trkpt lat="44.33631" lon="6.42722">
        <ele>1724.893</ele>
        <time>2020-10-07T10:30:43Z</time>
      </trkpt>
      <trkpt lat="44.33629" lon="6.4272">
        <ele>1723.813</ele>
        <time>2020-10-07T10:30:49Z</time>
      </trkpt>
      <trkpt lat="44.33628" lon="6.4272">
        <ele>1722.124</ele>
        <time>2020-10-07T10:30:54Z</time>
      </trkpt>
      <trkpt lat="44.33627" lon="6.42728">
        <ele>1721.031</ele>
        <time>2020-10-07T10:31:00Z</time>
      </trkpt>
      <trkpt lat="44.33626" lon="6.42736">
        <ele>1717.404</ele>
        <time>2020-10-07T10:31:06Z</time>
      </trkpt>
      <trkpt lat="44.3362" lon="6.42741">
        <ele>1713.101</ele>
        <time>2020-10-07T10:31:12Z</time>
      </trkpt>
      <trkpt lat="44.33622" lon="6.42749">
        <ele>1710.377</ele>
        <time>2020-10-07T10:31:18Z</time>
      </trkpt>
      <trkpt lat="44.33623" lon="6.42749">
        <ele>1710.266</ele>
        <time>2020-10-07T10:31:24Z</time>
      </trkpt>
      <trkpt lat="44.33623" lon="6.42759">
        <ele>1710.024</ele>
        <time>2020-10-07T10:31:30Z</time>
      </trkpt>
      <trkpt lat="44.33619" lon="6.42763">
        <ele>1707.924</ele>
        <time>2020-10-07T10:31:36Z</time>
      </trkpt>
      <trkpt lat="44.33619" lon="6.42765">
        <ele>1712.093</ele>
        <time>2020-10-07T10:31:42Z</time>
      </trkpt>
      <trkpt lat="44.33617" lon="6.42766">
        <ele>1712.54</ele>
        <time>2020-10-07T10:31:48Z</time>
      </trkpt>
      <trkpt lat="44.33615" lon="6.42768">
        <ele>1714.043</ele>
        <time>2020-10-07T10:31:54Z</time>
      </trkpt>
      <trkpt lat="44.33616" lon="6.42775">
        <ele>1714.104</ele>
        <time>2020-10-07T10:31:59Z</time>
      </trkpt>
      <trkpt lat="44.33619" lon="6.4278">
        <ele>1711.844</ele>
        <time>2020-10-07T10:32:05Z</time>
      </trkpt>
      <trkpt lat="44.33617" lon="6.42779">
        <ele>1709.048</ele>
        <time>2020-10-07T10:32:11Z</time>
      </trkpt>
      <trkpt lat="44.33617" lon="6.42779">
        <ele>1711.741</ele>
        <time>2020-10-07T10:32:17Z</time>
      </trkpt>
      <trkpt lat="44.33617" lon="6.42778">
        <ele>1494.373</ele>
        <time>2020-10-07T10:32:23Z</time>
      </trkpt>
      <trkpt lat="44.33619" lon="6.42787">
        <ele>1639.952</ele>
        <time>2020-10-07T10:32:29Z</time>
      </trkpt>
      <trkpt lat="44.33622" lon="6.42793">
        <ele>1685.556</ele>
        <time>2020-10-07T10:32:35Z</time>
      </trkpt>
      <trkpt lat="44.33621" lon="6.42798">
        <ele>1691.997</ele>
        <time>2020-10-07T10:32:41Z</time>
      </trkpt>
      <trkpt lat="44.33614" lon="6.42798">
        <ele>1704.1</ele>
        <time>2020-10-07T10:32:46Z</time>
      </trkpt>
      <trkpt lat="44.33614" lon="6.42804">
        <ele>1719.291</ele>
        <time>2020-10-07T10:32:52Z</time>
      </trkpt>
      <trkpt lat="44.33618" lon="6.42814">
        <ele>1721.022</ele>
        <time>2020-10-07T10:32:57Z</time>
      </trkpt>
      <trkpt lat="44.33619" lon="6.42817">
        <ele>1720.723</ele>
        <time>2020-10-07T10:33:02Z</time>
      </trkpt>
      <trkpt lat="44.33618" lon="6.42821">
        <ele>1716.223</ele>
        <time>2020-10-07T10:33:08Z</time>
      </trkpt>
      <trkpt lat="44.33621" lon="6.42833">
        <ele>1713.526</ele>
        <time>2020-10-07T10:33:14Z</time>
      </trkpt>
      <trkpt lat="44.33624" lon="6.42838">
        <ele>1715.852</ele>
        <time>2020-10-07T10:33:19Z</time>
      </trkpt>
      <trkpt lat="44.33623" lon="6.4284">
        <ele>1718.888</ele>
        <time>2020-10-07T10:33:24Z</time>
      </trkpt>
      <trkpt lat="44.33626" lon="6.42842">
        <ele>1725.296</ele>
        <time>2020-10-07T10:33:29Z</time>
      </trkpt>
      <trkpt lat="44.33628" lon="6.42845">
        <ele>1727.317</ele>
        <time>2020-10-07T10:33:35Z</time>
      </trkpt>
      <trkpt lat="44.33626" lon="6.4285">
        <ele>1544.741</ele>
        <time>2020-10-07T10:33:40Z</time>
      </trkpt>
      <trkpt lat="44.33626" lon="6.42856">
        <ele>1667.088</ele>
        <time>2020-10-07T10:33:46Z</time>
      </trkpt>
      <trkpt lat="44.3363" lon="6.42859">
        <ele>1709.105</ele>
        <time>2020-10-07T10:33:52Z</time>
      </trkpt>
      <trkpt lat="44.33633" lon="6.42861">
        <ele>1720.354</ele>
        <time>2020-10-07T10:33:57Z</time>
      </trkpt>
      <trkpt lat="44.33633" lon="6.42862">
        <ele>1723.907</ele>
        <time>2020-10-07T10:34:02Z</time>
      </trkpt>
      <trkpt lat="44.33632" lon="6.42861">
        <ele>1722.979</ele>
        <time>2020-10-07T10:34:07Z</time>
      </trkpt>
      <trkpt lat="44.33632" lon="6.42861">
        <ele>1726.653</ele>
        <time>2020-10-07T10:34:13Z</time>
      </trkpt>
      <trkpt lat="44.33632" lon="6.42861">
        <ele>1729.097</ele>
        <time>2020-10-07T10:34:19Z</time>
      </trkpt>
      <trkpt lat="44.33632" lon="6.42861">
        <ele>1729.901</ele>
        <time>2020-10-07T10:34:25Z</time>
      </trkpt>
      <trkpt lat="44.33633" lon="6.42863">
        <ele>1730.063</ele>
        <time>2020-10-07T10:34:31Z</time>
      </trkpt>
      <trkpt lat="44.33635" lon="6.42867">
        <ele>1727.465</ele>
        <time>2020-10-07T10:34:37Z</time>
      </trkpt>
      <trkpt lat="44.33639" lon="6.42873">
        <ele>1728.183</ele>
        <time>2020-10-07T10:34:42Z</time>
      </trkpt>
      <trkpt lat="44.33644" lon="6.42877">
        <ele>1725.436</ele>
        <time>2020-10-07T10:34:48Z</time>
      </trkpt>
      <trkpt lat="44.33648" lon="6.42883">
        <ele>1728.037</ele>
        <time>2020-10-07T10:34:53Z</time>
      </trkpt>
      <trkpt lat="44.3365" lon="6.42888">
        <ele>1729.766</ele>
        <time>2020-10-07T10:34:59Z</time>
      </trkpt>
      <trkpt lat="44.33654" lon="6.42894">
        <ele>1732.906</ele>
        <time>2020-10-07T10:35:04Z</time>
      </trkpt>
      <trkpt lat="44.33653" lon="6.42893">
        <ele>1736.86</ele>
        <time>2020-10-07T10:35:09Z</time>
      </trkpt>
      <trkpt lat="44.33655" lon="6.42896">
        <ele>1738.805</ele>
        <time>2020-10-07T10:35:14Z</time>
      </trkpt>
      <trkpt lat="44.33654" lon="6.42899">
        <ele>1736.021</ele>
        <time>2020-10-07T10:35:20Z</time>
      </trkpt>
      <trkpt lat="44.33654" lon="6.42899">
        <ele>1737.995</ele>
        <time>2020-10-07T10:35:25Z</time>
      </trkpt>
      <trkpt lat="44.33657" lon="6.42898">
        <ele>1736.566</ele>
        <time>2020-10-07T10:35:30Z</time>
      </trkpt>
      <trkpt lat="44.33652" lon="6.42897">
        <ele>1735.765</ele>
        <time>2020-10-07T10:35:36Z</time>
      </trkpt>
      <trkpt lat="44.3365" lon="6.42901">
        <ele>1729.297</ele>
        <time>2020-10-07T10:35:41Z</time>
      </trkpt>
      <trkpt lat="44.33649" lon="6.42906">
        <ele>1728.341</ele>
        <time>2020-10-07T10:35:47Z</time>
      </trkpt>
      <trkpt lat="44.33648" lon="6.42906">
        <ele>1731.015</ele>
        <time>2020-10-07T10:35:52Z</time>
      </trkpt>
      <trkpt lat="44.33647" lon="6.42905">
        <ele>1733.041</ele>
        <time>2020-10-07T10:35:58Z</time>
      </trkpt>
      <trkpt lat="44.33648" lon="6.4291">
        <ele>1735.497</ele>
        <time>2020-10-07T10:36:03Z</time>
      </trkpt>
      <trkpt lat="44.33644" lon="6.42912">
        <ele>1740.646</ele>
        <time>2020-10-07T10:36:09Z</time>
      </trkpt>
      <trkpt lat="44.33644" lon="6.42911">
        <ele>1737.705</ele>
        <time>2020-10-07T10:36:17Z</time>
      </trkpt>
      <trkpt lat="44.33644" lon="6.42912">
        <ele>1741.885</ele>
        <time>2020-10-07T10:36:22Z</time>
      </trkpt>
      <trkpt lat="44.33642" lon="6.42906">
        <ele>1740.57</ele>
        <time>2020-10-07T10:36:27Z</time>
      </trkpt>
      <trkpt lat="44.33643" lon="6.42906">
        <ele>1741.059</ele>
        <time>2020-10-07T10:36:33Z</time>
      </trkpt>
      <trkpt lat="44.33644" lon="6.42906">
        <ele>1741.543</ele>
        <time>2020-10-07T10:36:38Z</time>
      </trkpt>
      <trkpt lat="44.3364" lon="6.42906">
        <ele>1739.901</ele>
        <time>2020-10-07T10:36:44Z</time>
      </trkpt>
      <trkpt lat="44.33641" lon="6.42921">
        <ele>1738.01</ele>
        <time>2020-10-07T10:36:50Z</time>
      </trkpt>
      <trkpt lat="44.3364" lon="6.42933">
        <ele>1736.365</ele>
        <time>2020-10-07T10:36:56Z</time>
      </trkpt>
      <trkpt lat="44.33641" lon="6.42936">
        <ele>1735.145</ele>
        <time>2020-10-07T10:37:02Z</time>
      </trkpt>
      <trkpt lat="44.33642" lon="6.42939">
        <ele>1733.739</ele>
        <time>2020-10-07T10:37:07Z</time>
      </trkpt>
      <trkpt lat="44.33645" lon="6.4294">
        <ele>1733.317</ele>
        <time>2020-10-07T10:37:13Z</time>
      </trkpt>
      <trkpt lat="44.33646" lon="6.42944">
        <ele>1733.418</ele>
        <time>2020-10-07T10:37:19Z</time>
      </trkpt>
      <trkpt lat="44.33646" lon="6.42947">
        <ele>1730.695</ele>
        <time>2020-10-07T10:37:24Z</time>
      </trkpt>
      <trkpt lat="44.33646" lon="6.42949">
        <ele>1729.116</ele>
        <time>2020-10-07T10:37:29Z</time>
      </trkpt>
      <trkpt lat="44.33651" lon="6.42954">
        <ele>1729.593</ele>
        <time>2020-10-07T10:37:35Z</time>
      </trkpt>
      <trkpt lat="44.33653" lon="6.42957">
        <ele>1728.964</ele>
        <time>2020-10-07T10:37:41Z</time>
      </trkpt>
      <trkpt lat="44.33654" lon="6.42958">
        <ele>1729.386</ele>
        <time>2020-10-07T10:37:47Z</time>
      </trkpt>
      <trkpt lat="44.33658" lon="6.4296">
        <ele>1729.41</ele>
        <time>2020-10-07T10:37:52Z</time>
      </trkpt>
      <trkpt lat="44.33666" lon="6.42967">
        <ele>1729.545</ele>
        <time>2020-10-07T10:37:58Z</time>
      </trkpt>
      <trkpt lat="44.33668" lon="6.42972">
        <ele>1727.232</ele>
        <time>2020-10-07T10:38:04Z</time>
      </trkpt>
      <trkpt lat="44.33666" lon="6.42975">
        <ele>1726.361</ele>
        <time>2020-10-07T10:38:09Z</time>
      </trkpt>
      <trkpt lat="44.33666" lon="6.42977">
        <ele>1725.307</ele>
        <time>2020-10-07T10:38:15Z</time>
      </trkpt>
      <trkpt lat="44.33665" lon="6.42983">
        <ele>1727.617</ele>
        <time>2020-10-07T10:38:21Z</time>
      </trkpt>
      <trkpt lat="44.33666" lon="6.42993">
        <ele>1727.045</ele>
        <time>2020-10-07T10:38:27Z</time>
      </trkpt>
      <trkpt lat="44.33665" lon="6.42995">
        <ele>1727.532</ele>
        <time>2020-10-07T10:38:32Z</time>
      </trkpt>
      <trkpt lat="44.33669" lon="6.43001">
        <ele>1729.068</ele>
        <time>2020-10-07T10:38:38Z</time>
      </trkpt>
      <trkpt lat="44.33673" lon="6.43012">
        <ele>1728.522</ele>
        <time>2020-10-07T10:38:44Z</time>
      </trkpt>
      <trkpt lat="44.33667" lon="6.43015">
        <ele>1727.104</ele>
        <time>2020-10-07T10:38:50Z</time>
      </trkpt>
      <trkpt lat="44.33669" lon="6.43024">
        <ele>1725.28</ele>
        <time>2020-10-07T10:38:55Z</time>
      </trkpt>
      <trkpt lat="44.33671" lon="6.43029">
        <ele>1730.267</ele>
        <time>2020-10-07T10:39:01Z</time>
      </trkpt>
      <trkpt lat="44.33675" lon="6.43035">
        <ele>1733.116</ele>
        <time>2020-10-07T10:39:07Z</time>
      </trkpt>
      <trkpt lat="44.33677" lon="6.4304">
        <ele>1731.675</ele>
        <time>2020-10-07T10:39:13Z</time>
      </trkpt>
      <trkpt lat="44.33682" lon="6.43046">
        <ele>1735.78</ele>
        <time>2020-10-07T10:39:19Z</time>
      </trkpt>
      <trkpt lat="44.33677" lon="6.43043">
        <ele>1736.689</ele>
        <time>2020-10-07T10:39:25Z</time>
      </trkpt>
      <trkpt lat="44.33674" lon="6.4305">
        <ele>1735.032</ele>
        <time>2020-10-07T10:39:31Z</time>
      </trkpt>
      <trkpt lat="44.33668" lon="6.43056">
        <ele>1729.562</ele>
        <time>2020-10-07T10:39:36Z</time>
      </trkpt>
      <trkpt lat="44.33665" lon="6.43058">
        <ele>1734.524</ele>
        <time>2020-10-07T10:39:42Z</time>
      </trkpt>
      <trkpt lat="44.33671" lon="6.43071">
        <ele>1735.284</ele>
        <time>2020-10-07T10:39:48Z</time>
      </trkpt>
      <trkpt lat="44.3367" lon="6.43076">
        <ele>1734.81</ele>
        <time>2020-10-07T10:39:53Z</time>
      </trkpt>
      <trkpt lat="44.33673" lon="6.43078">
        <ele>1739.142</ele>
        <time>2020-10-07T10:39:59Z</time>
      </trkpt>
      <trkpt lat="44.33674" lon="6.4308">
        <ele>1742.733</ele>
        <time>2020-10-07T10:40:05Z</time>
      </trkpt>
      <trkpt lat="44.33671" lon="6.43083">
        <ele>1745.969</ele>
        <time>2020-10-07T10:40:11Z</time>
      </trkpt>
      <trkpt lat="44.33668" lon="6.43083">
        <ele>1748.605</ele>
        <time>2020-10-07T10:40:16Z</time>
      </trkpt>
      <trkpt lat="44.33669" lon="6.43085">
        <ele>1749.978</ele>
        <time>2020-10-07T10:40:22Z</time>
      </trkpt>
      <trkpt lat="44.33667" lon="6.43081">
        <ele>1751.984</ele>
        <time>2020-10-07T10:40:27Z</time>
      </trkpt>
      <trkpt lat="44.33666" lon="6.43083">
        <ele>1749.346</ele>
        <time>2020-10-07T10:40:32Z</time>
      </trkpt>
      <trkpt lat="44.33665" lon="6.43082">
        <ele>1747.79</ele>
        <time>2020-10-07T10:40:38Z</time>
      </trkpt>
      <trkpt lat="44.33667" lon="6.43092">
        <ele>1744.806</ele>
        <time>2020-10-07T10:40:43Z</time>
      </trkpt>
      <trkpt lat="44.33667" lon="6.43104">
        <ele>1745.302</ele>
        <time>2020-10-07T10:40:49Z</time>
      </trkpt>
      <trkpt lat="44.33669" lon="6.43112">
        <ele>1747.35</ele>
        <time>2020-10-07T10:40:55Z</time>
      </trkpt>
      <trkpt lat="44.33674" lon="6.43117">
        <ele>1747.443</ele>
        <time>2020-10-07T10:41:00Z</time>
      </trkpt>
      <trkpt lat="44.33673" lon="6.43123">
        <ele>1747.284</ele>
        <time>2020-10-07T10:41:05Z</time>
      </trkpt>
      <trkpt lat="44.33676" lon="6.43127">
        <ele>1745.722</ele>
        <time>2020-10-07T10:41:10Z</time>
      </trkpt>
      <trkpt lat="44.33676" lon="6.43133">
        <ele>1742.528</ele>
        <time>2020-10-07T10:41:16Z</time>
      </trkpt>
      <trkpt lat="44.33673" lon="6.43138">
        <ele>1743.006</ele>
        <time>2020-10-07T10:41:22Z</time>
      </trkpt>
      <trkpt lat="44.33669" lon="6.43138">
        <ele>1740.091</ele>
        <time>2020-10-07T10:41:28Z</time>
      </trkpt>
      <trkpt lat="44.33667" lon="6.43139">
        <ele>1743.624</ele>
        <time>2020-10-07T10:41:34Z</time>
      </trkpt>
      <trkpt lat="44.33664" lon="6.43139">
        <ele>1742.845</ele>
        <time>2020-10-07T10:41:39Z</time>
      </trkpt>
      <trkpt lat="44.33665" lon="6.43145">
        <ele>1743.05</ele>
        <time>2020-10-07T10:41:44Z</time>
      </trkpt>
      <trkpt lat="44.33664" lon="6.43149">
        <ele>1741.875</ele>
        <time>2020-10-07T10:41:50Z</time>
      </trkpt>
      <trkpt lat="44.33662" lon="6.43156">
        <ele>1745.208</ele>
        <time>2020-10-07T10:41:56Z</time>
      </trkpt>
      <trkpt lat="44.33664" lon="6.4316">
        <ele>1752.603</ele>
        <time>2020-10-07T10:42:01Z</time>
      </trkpt>
      <trkpt lat="44.33666" lon="6.43169">
        <ele>1757.092</ele>
        <time>2020-10-07T10:42:07Z</time>
      </trkpt>
      <trkpt lat="44.33668" lon="6.43173">
        <ele>1760.231</ele>
        <time>2020-10-07T10:42:12Z</time>
      </trkpt>
      <trkpt lat="44.3367" lon="6.43178">
        <ele>1759.494</ele>
        <time>2020-10-07T10:42:17Z</time>
      </trkpt>
      <trkpt lat="44.33668" lon="6.43181">
        <ele>1757.315</ele>
        <time>2020-10-07T10:42:23Z</time>
      </trkpt>
      <trkpt lat="44.33667" lon="6.43186">
        <ele>1754.194</ele>
        <time>2020-10-07T10:42:29Z</time>
      </trkpt>
      <trkpt lat="44.33671" lon="6.4319">
        <ele>1755.666</ele>
        <time>2020-10-07T10:42:34Z</time>
      </trkpt>
      <trkpt lat="44.33665" lon="6.43191">
        <ele>1742.81</ele>
        <time>2020-10-07T10:42:39Z</time>
      </trkpt>
      <trkpt lat="44.33664" lon="6.43194">
        <ele>1738.558</ele>
        <time>2020-10-07T10:42:45Z</time>
      </trkpt>
      <trkpt lat="44.33663" lon="6.43194">
        <ele>1735.681</ele>
        <time>2020-10-07T10:42:50Z</time>
      </trkpt>
      <trkpt lat="44.3366" lon="6.43194">
        <ele>1733.929</ele>
        <time>2020-10-07T10:42:56Z</time>
      </trkpt>
      <trkpt lat="44.3366" lon="6.43195">
        <ele>1737.427</ele>
        <time>2020-10-07T10:43:01Z</time>
      </trkpt>
      <trkpt lat="44.33658" lon="6.43197">
        <ele>1737.389</ele>
        <time>2020-10-07T10:43:07Z</time>
      </trkpt>
      <trkpt lat="44.33659" lon="6.43201">
        <ele>1740.646</ele>
        <time>2020-10-07T10:43:13Z</time>
      </trkpt>
      <trkpt lat="44.33659" lon="6.43203">
        <ele>1742.786</ele>
        <time>2020-10-07T10:43:19Z</time>
      </trkpt>
      <trkpt lat="44.3366" lon="6.43205">
        <ele>1742.957</ele>
        <time>2020-10-07T10:43:25Z</time>
      </trkpt>
      <trkpt lat="44.33663" lon="6.43209">
        <ele>1742.634</ele>
        <time>2020-10-07T10:43:30Z</time>
      </trkpt>
      <trkpt lat="44.33664" lon="6.43211">
        <ele>1744.987</ele>
        <time>2020-10-07T10:43:36Z</time>
      </trkpt>
      <trkpt lat="44.3367" lon="6.43214">
        <ele>1744.681</ele>
        <time>2020-10-07T10:43:41Z</time>
      </trkpt>
      <trkpt lat="44.33669" lon="6.43219">
        <ele>1744.135</ele>
        <time>2020-10-07T10:43:47Z</time>
      </trkpt>
      <trkpt lat="44.33668" lon="6.4322">
        <ele>1751.582</ele>
        <time>2020-10-07T10:43:53Z</time>
      </trkpt>
      <trkpt lat="44.33667" lon="6.43222">
        <ele>1751.027</ele>
        <time>2020-10-07T10:43:59Z</time>
      </trkpt>
      <trkpt lat="44.33665" lon="6.43227">
        <ele>1745.741</ele>
        <time>2020-10-07T10:44:05Z</time>
      </trkpt>
      <trkpt lat="44.33666" lon="6.43228">
        <ele>1743.4</ele>
        <time>2020-10-07T10:44:11Z</time>
      </trkpt>
      <trkpt lat="44.33666" lon="6.43227">
        <ele>1744.624</ele>
        <time>2020-10-07T10:44:17Z</time>
      </trkpt>
      <trkpt lat="44.33666" lon="6.43228">
        <ele>1746.155</ele>
        <time>2020-10-07T10:44:22Z</time>
      </trkpt>
      <trkpt lat="44.33671" lon="6.43237">
        <ele>1749.938</ele>
        <time>2020-10-07T10:44:28Z</time>
      </trkpt>
      <trkpt lat="44.33671" lon="6.43238">
        <ele>1749.34</ele>
        <time>2020-10-07T10:44:33Z</time>
      </trkpt>
      <trkpt lat="44.33671" lon="6.43237">
        <ele>1753.588</ele>
        <time>2020-10-07T10:44:39Z</time>
      </trkpt>
      <trkpt lat="44.3367" lon="6.43239">
        <ele>1752.694</ele>
        <time>2020-10-07T10:44:44Z</time>
      </trkpt>
      <trkpt lat="44.3367" lon="6.4324">
        <ele>1752.542</ele>
        <time>2020-10-07T10:44:50Z</time>
      </trkpt>
      <trkpt lat="44.3367" lon="6.4324">
        <ele>1752.675</ele>
        <time>2020-10-07T10:44:56Z</time>
      </trkpt>
      <trkpt lat="44.3367" lon="6.4324">
        <ele>1752.681</ele>
        <time>2020-10-07T10:45:01Z</time>
      </trkpt>
      <trkpt lat="44.3367" lon="6.4324">
        <ele>1752.776</ele>
        <time>2020-10-07T10:45:06Z</time>
      </trkpt>
      <trkpt lat="44.3367" lon="6.4324">
        <ele>1752.783</ele>
        <time>2020-10-07T10:45:12Z</time>
      </trkpt>
      <trkpt lat="44.33667" lon="6.43238">
        <ele>1757.299</ele>
        <time>2020-10-07T10:45:17Z</time>
      </trkpt>
      <trkpt lat="44.33666" lon="6.43237">
        <ele>1762.078</ele>
        <time>2020-10-07T10:45:23Z</time>
      </trkpt>
      <trkpt lat="44.33664" lon="6.43236">
        <ele>1762.463</ele>
        <time>2020-10-07T10:45:28Z</time>
      </trkpt>
      <trkpt lat="44.33663" lon="6.43238">
        <ele>1761.388</ele>
        <time>2020-10-07T10:45:34Z</time>
      </trkpt>
      <trkpt lat="44.33659" lon="6.43238">
        <ele>1757.265</ele>
        <time>2020-10-07T10:45:40Z</time>
      </trkpt>
      <trkpt lat="44.33662" lon="6.43238">
        <ele>1760.095</ele>
        <time>2020-10-07T10:45:46Z</time>
      </trkpt>
      <trkpt lat="44.3366" lon="6.43237">
        <ele>1757.818</ele>
        <time>2020-10-07T10:45:51Z</time>
      </trkpt>
      <trkpt lat="44.3366" lon="6.43237">
        <ele>1757.798</ele>
        <time>2020-10-07T10:45:57Z</time>
      </trkpt>
      <trkpt lat="44.3366" lon="6.43237">
        <ele>1757.772</ele>
        <time>2020-10-07T10:46:03Z</time>
      </trkpt>
      <trkpt lat="44.3366" lon="6.43237">
        <ele>1757.745</ele>
        <time>2020-10-07T10:46:08Z</time>
      </trkpt>
      <trkpt lat="44.3366" lon="6.43237">
        <ele>1757.716</ele>
        <time>2020-10-07T10:46:13Z</time>
      </trkpt>
      <trkpt lat="44.33661" lon="6.43243">
        <ele>1757.837</ele>
        <time>2020-10-07T10:46:19Z</time>
      </trkpt>
      <trkpt lat="44.33658" lon="6.43242">
        <ele>1731.997</ele>
        <time>2020-10-07T10:46:25Z</time>
      </trkpt>
      <trkpt lat="44.33659" lon="6.43242">
        <ele>1742.535</ele>
        <time>2020-10-07T10:46:31Z</time>
      </trkpt>
      <trkpt lat="44.33659" lon="6.43243">
        <ele>1749.754</ele>
        <time>2020-10-07T10:46:36Z</time>
      </trkpt>
      <trkpt lat="44.33659" lon="6.43243">
        <ele>1754.186</ele>
        <time>2020-10-07T10:46:43Z</time>
      </trkpt>
      <trkpt lat="44.33662" lon="6.43251">
        <ele>1753.592</ele>
        <time>2020-10-07T10:46:49Z</time>
      </trkpt>
      <trkpt lat="44.33662" lon="6.43262">
        <ele>1749.344</ele>
        <time>2020-10-07T10:46:55Z</time>
      </trkpt>
      <trkpt lat="44.33659" lon="6.43262">
        <ele>1750.094</ele>
        <time>2020-10-07T10:47:01Z</time>
      </trkpt>
      <trkpt lat="44.3366" lon="6.43264">
        <ele>1751.296</ele>
        <time>2020-10-07T10:47:06Z</time>
      </trkpt>
      <trkpt lat="44.33661" lon="6.43264">
        <ele>1751.708</ele>
        <time>2020-10-07T10:47:11Z</time>
      </trkpt>
      <trkpt lat="44.33661" lon="6.43264">
        <ele>1751.906</ele>
        <time>2020-10-07T10:47:17Z</time>
      </trkpt>
      <trkpt lat="44.33662" lon="6.43264">
        <ele>1754.522</ele>
        <time>2020-10-07T10:47:22Z</time>
      </trkpt>
      <trkpt lat="44.33663" lon="6.43264">
        <ele>1755.258</ele>
        <time>2020-10-07T10:47:27Z</time>
      </trkpt>
      <trkpt lat="44.33665" lon="6.43263">
        <ele>1758.48</ele>
        <time>2020-10-07T10:47:33Z</time>
      </trkpt>
      <trkpt lat="44.33667" lon="6.43259">
        <ele>1763.047</ele>
        <time>2020-10-07T10:47:38Z</time>
      </trkpt>
      <trkpt lat="44.33668" lon="6.4326">
        <ele>1762.006</ele>
        <time>2020-10-07T10:47:43Z</time>
      </trkpt>
      <trkpt lat="44.33669" lon="6.43262">
        <ele>1761.888</ele>
        <time>2020-10-07T10:47:48Z</time>
      </trkpt>
      <trkpt lat="44.33669" lon="6.43261">
        <ele>1758.295</ele>
        <time>2020-10-07T10:47:54Z</time>
      </trkpt>
      <trkpt lat="44.33667" lon="6.43259">
        <ele>1753.921</ele>
        <time>2020-10-07T10:48:00Z</time>
      </trkpt>
      <trkpt lat="44.33667" lon="6.43259">
        <ele>1753.647</ele>
        <time>2020-10-07T10:48:05Z</time>
      </trkpt>
      <trkpt lat="44.33668" lon="6.43257">
        <ele>1754.609</ele>
        <time>2020-10-07T10:48:11Z</time>
      </trkpt>
      <trkpt lat="44.33668" lon="6.43258">
        <ele>1754.483</ele>
        <time>2020-10-07T10:48:17Z</time>
      </trkpt>
      <trkpt lat="44.33669" lon="6.43257">
        <ele>1756.615</ele>
        <time>2020-10-07T10:48:22Z</time>
      </trkpt>
      <trkpt lat="44.33667" lon="6.43258">
        <ele>1756.066</ele>
        <time>2020-10-07T10:48:27Z</time>
      </trkpt>
      <trkpt lat="44.33668" lon="6.43258">
        <ele>1756.835</ele>
        <time>2020-10-07T10:48:33Z</time>
      </trkpt>
      <trkpt lat="44.33668" lon="6.43258">
        <ele>1754.638</ele>
        <time>2020-10-07T10:48:38Z</time>
      </trkpt>
      <trkpt lat="44.3367" lon="6.43258">
        <ele>1754.271</ele>
        <time>2020-10-07T10:48:43Z</time>
      </trkpt>
      <trkpt lat="44.33668" lon="6.43252">
        <ele>1752.483</ele>
        <time>2020-10-07T10:48:49Z</time>
      </trkpt>
      <trkpt lat="44.33667" lon="6.4325">
        <ele>1750.617</ele>
        <time>2020-10-07T10:48:54Z</time>
      </trkpt>
      <trkpt lat="44.33667" lon="6.43251">
        <ele>1751.669</ele>
        <time>2020-10-07T10:49:00Z</time>
      </trkpt>
      <trkpt lat="44.33668" lon="6.43254">
        <ele>1750.551</ele>
        <time>2020-10-07T10:49:05Z</time>
      </trkpt>
      <trkpt lat="44.33668" lon="6.43256">
        <ele>1754.238</ele>
        <time>2020-10-07T10:49:11Z</time>
      </trkpt>
      <trkpt lat="44.33669" lon="6.43256">
        <ele>1755.448</ele>
        <time>2020-10-07T10:49:16Z</time>
      </trkpt>
      <trkpt lat="44.33669" lon="6.43255">
        <ele>1752.289</ele>
        <time>2020-10-07T10:49:22Z</time>
      </trkpt>
      <trkpt lat="44.33668" lon="6.43255">
        <ele>1748.72</ele>
        <time>2020-10-07T10:49:27Z</time>
      </trkpt>
      <trkpt lat="44.33666" lon="6.43254">
        <ele>1748.237</ele>
        <time>2020-10-07T10:49:33Z</time>
      </trkpt>
      <trkpt lat="44.33665" lon="6.43254">
        <ele>1748.281</ele>
        <time>2020-10-07T10:49:38Z</time>
      </trkpt>
      <trkpt lat="44.33665" lon="6.43254">
        <ele>1748.477</ele>
        <time>2020-10-07T10:49:43Z</time>
      </trkpt>
      <trkpt lat="44.33665" lon="6.43255">
        <ele>1748.496</ele>
        <time>2020-10-07T10:49:49Z</time>
      </trkpt>
      <trkpt lat="44.33665" lon="6.43255">
        <ele>1748.532</ele>
        <time>2020-10-07T10:49:55Z</time>
      </trkpt>
      <trkpt lat="44.33665" lon="6.43253">
        <ele>1750.313</ele>
        <time>2020-10-07T10:50:01Z</time>
      </trkpt>
      <trkpt lat="44.33666" lon="6.43252">
        <ele>1749.885</ele>
        <time>2020-10-07T10:50:06Z</time>
      </trkpt>
      <trkpt lat="44.33664" lon="6.4325">
        <ele>1748.786</ele>
        <time>2020-10-07T10:50:12Z</time>
      </trkpt>
      <trkpt lat="44.33664" lon="6.4325">
        <ele>1750.261</ele>
        <time>2020-10-07T10:50:17Z</time>
      </trkpt>
      <trkpt lat="44.33664" lon="6.4325">
        <ele>1750.291</ele>
        <time>2020-10-07T10:50:23Z</time>
      </trkpt>
      <trkpt lat="44.33666" lon="6.43251">
        <ele>1755.195</ele>
        <time>2020-10-07T10:50:29Z</time>
      </trkpt>
      <trkpt lat="44.33668" lon="6.43252">
        <ele>1757.103</ele>
        <time>2020-10-07T10:50:34Z</time>
      </trkpt>
      <trkpt lat="44.33666" lon="6.43252">
        <ele>1754.889</ele>
        <time>2020-10-07T10:50:40Z</time>
      </trkpt>
      <trkpt lat="44.33663" lon="6.43255">
        <ele>1753.056</ele>
        <time>2020-10-07T10:50:45Z</time>
      </trkpt>
      <trkpt lat="44.33663" lon="6.43256">
        <ele>1751.955</ele>
        <time>2020-10-07T10:50:51Z</time>
      </trkpt>
      <trkpt lat="44.33661" lon="6.43255">
        <ele>1750.964</ele>
        <time>2020-10-07T10:50:56Z</time>
      </trkpt>
      <trkpt lat="44.33661" lon="6.43255">
        <ele>1750.941</ele>
        <time>2020-10-07T10:51:02Z</time>
      </trkpt>
      <trkpt lat="44.33661" lon="6.43255">
        <ele>1750.944</ele>
        <time>2020-10-07T10:51:07Z</time>
      </trkpt>
      <trkpt lat="44.3366" lon="6.43255">
        <ele>1750.2</ele>
        <time>2020-10-07T10:51:13Z</time>
      </trkpt>
      <trkpt lat="44.33661" lon="6.43254">
        <ele>1750.924</ele>
        <time>2020-10-07T10:51:18Z</time>
      </trkpt>
      <trkpt lat="44.33661" lon="6.43255">
        <ele>1749.507</ele>
        <time>2020-10-07T10:51:23Z</time>
      </trkpt>
      <trkpt lat="44.33665" lon="6.43256">
        <ele>1751.606</ele>
        <time>2020-10-07T10:51:29Z</time>
      </trkpt>
      <trkpt lat="44.33668" lon="6.43256">
        <ele>1756.439</ele>
        <time>2020-10-07T10:51:34Z</time>
      </trkpt>
      <trkpt lat="44.3367" lon="6.43255">
        <ele>1760.46</ele>
        <time>2020-10-07T10:51:40Z</time>
      </trkpt>
      <trkpt lat="44.3367" lon="6.43254">
        <ele>1757.596</ele>
        <time>2020-10-07T10:51:45Z</time>
      </trkpt>
      <trkpt lat="44.33674" lon="6.43254">
        <ele>1762.492</ele>
        <time>2020-10-07T10:51:51Z</time>
      </trkpt>
      <trkpt lat="44.33674" lon="6.43251">
        <ele>1762.608</ele>
        <time>2020-10-07T10:51:57Z</time>
      </trkpt>
      <trkpt lat="44.33676" lon="6.4325">
        <ele>1763.442</ele>
        <time>2020-10-07T10:52:02Z</time>
      </trkpt>
      <trkpt lat="44.33676" lon="6.43251">
        <ele>1762.499</ele>
        <time>2020-10-07T10:52:07Z</time>
      </trkpt>
      <trkpt lat="44.33676" lon="6.43249">
        <ele>1765.922</ele>
        <time>2020-10-07T10:52:13Z</time>
      </trkpt>
      <trkpt lat="44.33677" lon="6.43248">
        <ele>1766.783</ele>
        <time>2020-10-07T10:52:19Z</time>
      </trkpt>
      <trkpt lat="44.33677" lon="6.43248">
        <ele>1766.792</ele>
        <time>2020-10-07T10:52:24Z</time>
      </trkpt>
      <trkpt lat="44.33677" lon="6.43248">
        <ele>1766.787</ele>
        <time>2020-10-07T10:52:30Z</time>
      </trkpt>
      <trkpt lat="44.33676" lon="6.43248">
        <ele>1764.692</ele>
        <time>2020-10-07T10:52:35Z</time>
      </trkpt>
      <trkpt lat="44.33678" lon="6.43246">
        <ele>1762.586</ele>
        <time>2020-10-07T10:52:41Z</time>
      </trkpt>
      <trkpt lat="44.33682" lon="6.43244">
        <ele>1764.586</ele>
        <time>2020-10-07T10:52:46Z</time>
      </trkpt>
      <trkpt lat="44.33682" lon="6.43245">
        <ele>1765.026</ele>
        <time>2020-10-07T10:52:52Z</time>
      </trkpt>
      <trkpt lat="44.33679" lon="6.43247">
        <ele>1764.945</ele>
        <time>2020-10-07T10:52:57Z</time>
      </trkpt>
      <trkpt lat="44.33672" lon="6.43246">
        <ele>1759.217</ele>
        <time>2020-10-07T10:53:03Z</time>
      </trkpt>
      <trkpt lat="44.33669" lon="6.43246">
        <ele>1758.853</ele>
        <time>2020-10-07T10:53:09Z</time>
      </trkpt>
      <trkpt lat="44.33669" lon="6.43246">
        <ele>1760.366</ele>
        <time>2020-10-07T10:53:15Z</time>
      </trkpt>
      <trkpt lat="44.33669" lon="6.43247">
        <ele>1759.848</ele>
        <time>2020-10-07T10:53:21Z</time>
      </trkpt>
      <trkpt lat="44.3367" lon="6.43248">
        <ele>1760.913</ele>
        <time>2020-10-07T10:53:27Z</time>
      </trkpt>
      <trkpt lat="44.33671" lon="6.43248">
        <ele>1761.436</ele>
        <time>2020-10-07T10:53:32Z</time>
      </trkpt>
      <trkpt lat="44.33671" lon="6.43248">
        <ele>1761.85</ele>
        <time>2020-10-07T10:53:38Z</time>
      </trkpt>
      <trkpt lat="44.33671" lon="6.43248">
        <ele>1761.837</ele>
        <time>2020-10-07T10:53:44Z</time>
      </trkpt>
      <trkpt lat="44.33671" lon="6.43248">
        <ele>1761.85</ele>
        <time>2020-10-07T10:53:49Z</time>
      </trkpt>
      <trkpt lat="44.33673" lon="6.43241">
        <ele>1763.655</ele>
        <time>2020-10-07T10:53:55Z</time>
      </trkpt>
      <trkpt lat="44.33671" lon="6.43241">
        <ele>1762.973</ele>
        <time>2020-10-07T10:54:00Z</time>
      </trkpt>
      <trkpt lat="44.33669" lon="6.43243">
        <ele>1761.532</ele>
        <time>2020-10-07T10:54:06Z</time>
      </trkpt>
      <trkpt lat="44.3367" lon="6.43245">
        <ele>1765.166</ele>
        <time>2020-10-07T10:54:12Z</time>
      </trkpt>
      <trkpt lat="44.3367" lon="6.43244">
        <ele>1762.442</ele>
        <time>2020-10-07T10:54:17Z</time>
      </trkpt>
      <trkpt lat="44.3367" lon="6.43245">
        <ele>1758.701</ele>
        <time>2020-10-07T10:54:23Z</time>
      </trkpt>
      <trkpt lat="44.33669" lon="6.43245">
        <ele>1757.27</ele>
        <time>2020-10-07T10:54:29Z</time>
      </trkpt>
      <trkpt lat="44.33668" lon="6.43248">
        <ele>1758.171</ele>
        <time>2020-10-07T10:54:35Z</time>
      </trkpt>
      <trkpt lat="44.3367" lon="6.43252">
        <ele>1752.389</ele>
        <time>2020-10-07T10:54:41Z</time>
      </trkpt>
      <trkpt lat="44.33671" lon="6.43252">
        <ele>1754.85</ele>
        <time>2020-10-07T10:54:46Z</time>
      </trkpt>
      <trkpt lat="44.33671" lon="6.43253">
        <ele>1755.437</ele>
        <time>2020-10-07T10:54:52Z</time>
      </trkpt>
      <trkpt lat="44.33671" lon="6.43253">
        <ele>1756.173</ele>
        <time>2020-10-07T10:54:58Z</time>
      </trkpt>
      <trkpt lat="44.3367" lon="6.43252">
        <ele>1761.446</ele>
        <time>2020-10-07T10:55:03Z</time>
      </trkpt>
      <trkpt lat="44.3367" lon="6.43253">
        <ele>1760.177</ele>
        <time>2020-10-07T10:55:09Z</time>
      </trkpt>
      <trkpt lat="44.33671" lon="6.43252">
        <ele>1763.321</ele>
        <time>2020-10-07T10:55:14Z</time>
      </trkpt>
      <trkpt lat="44.33675" lon="6.4325">
        <ele>1761.985</ele>
        <time>2020-10-07T10:55:20Z</time>
      </trkpt>
      <trkpt lat="44.33678" lon="6.43241">
        <ele>1757.157</ele>
        <time>2020-10-07T10:55:26Z</time>
      </trkpt>
      <trkpt lat="44.33677" lon="6.43238">
        <ele>1756.478</ele>
        <time>2020-10-07T10:55:32Z</time>
      </trkpt>
      <trkpt lat="44.33677" lon="6.43238">
        <ele>1756.362</ele>
        <time>2020-10-07T10:55:37Z</time>
      </trkpt>
      <trkpt lat="44.33678" lon="6.43237">
        <ele>1757.076</ele>
        <time>2020-10-07T10:55:43Z</time>
      </trkpt>
      <trkpt lat="44.33678" lon="6.43229">
        <ele>1756.284</ele>
        <time>2020-10-07T10:55:49Z</time>
      </trkpt>
      <trkpt lat="44.33676" lon="6.43225">
        <ele>1753.42</ele>
        <time>2020-10-07T10:55:54Z</time>
      </trkpt>
      <trkpt lat="44.33677" lon="6.43222">
        <ele>1751.458</ele>
        <time>2020-10-07T10:55:59Z</time>
      </trkpt>
      <trkpt lat="44.33671" lon="6.43212">
        <ele>1750.057</ele>
        <time>2020-10-07T10:56:05Z</time>
      </trkpt>
      <trkpt lat="44.33669" lon="6.43206">
        <ele>1751.707</ele>
        <time>2020-10-07T10:56:10Z</time>
      </trkpt>
      <trkpt lat="44.33666" lon="6.43203">
        <ele>1750.697</ele>
        <time>2020-10-07T10:56:16Z</time>
      </trkpt>
      <trkpt lat="44.33666" lon="6.43201">
        <ele>1751.359</ele>
        <time>2020-10-07T10:56:21Z</time>
      </trkpt>
      <trkpt lat="44.33664" lon="6.43191">
        <ele>1753.007</ele>
        <time>2020-10-07T10:56:27Z</time>
      </trkpt>
      <trkpt lat="44.33669" lon="6.43186">
        <ele>1755.43</ele>
        <time>2020-10-07T10:56:32Z</time>
      </trkpt>
      <trkpt lat="44.3367" lon="6.43186">
        <ele>1754.202</ele>
        <time>2020-10-07T10:56:37Z</time>
      </trkpt>
      <trkpt lat="44.3367" lon="6.43182">
        <ele>1757.54</ele>
        <time>2020-10-07T10:56:43Z</time>
      </trkpt>
      <trkpt lat="44.3367" lon="6.4318">
        <ele>1757.257</ele>
        <time>2020-10-07T10:56:48Z</time>
      </trkpt>
      <trkpt lat="44.33679" lon="6.43173">
        <ele>1755.209</ele>
        <time>2020-10-07T10:56:54Z</time>
      </trkpt>
      <trkpt lat="44.3368" lon="6.43159">
        <ele>1759.473</ele>
        <time>2020-10-07T10:57:00Z</time>
      </trkpt>
      <trkpt lat="44.33677" lon="6.43151">
        <ele>1756.917</ele>
        <time>2020-10-07T10:57:05Z</time>
      </trkpt>
      <trkpt lat="44.33674" lon="6.43143">
        <ele>1753.255</ele>
        <time>2020-10-07T10:57:11Z</time>
      </trkpt>
      <trkpt lat="44.33673" lon="6.43133">
        <ele>1750.448</ele>
        <time>2020-10-07T10:57:17Z</time>
      </trkpt>
      <trkpt lat="44.33675" lon="6.43127">
        <ele>1746.618</ele>
        <time>2020-10-07T10:57:22Z</time>
      </trkpt>
      <trkpt lat="44.33679" lon="6.43116">
        <ele>1746.162</ele>
        <time>2020-10-07T10:57:27Z</time>
      </trkpt>
      <trkpt lat="44.33678" lon="6.43109">
        <ele>1747.74</ele>
        <time>2020-10-07T10:57:32Z</time>
      </trkpt>
      <trkpt lat="44.33679" lon="6.43107">
        <ele>1745.657</ele>
        <time>2020-10-07T10:57:38Z</time>
      </trkpt>
      <trkpt lat="44.33679" lon="6.43107">
        <ele>1748.6</ele>
        <time>2020-10-07T10:57:43Z</time>
      </trkpt>
      <trkpt lat="44.33678" lon="6.43106">
        <ele>1751.762</ele>
        <time>2020-10-07T10:57:49Z</time>
      </trkpt>
      <trkpt lat="44.33679" lon="6.43107">
        <ele>1752.623</ele>
        <time>2020-10-07T10:57:54Z</time>
      </trkpt>
      <trkpt lat="44.33675" lon="6.43102">
        <ele>1749.314</ele>
        <time>2020-10-07T10:58:00Z</time>
      </trkpt>
      <trkpt lat="44.33676" lon="6.43098">
        <ele>1747.772</ele>
        <time>2020-10-07T10:58:05Z</time>
      </trkpt>
      <trkpt lat="44.33677" lon="6.43098">
        <ele>1748.305</ele>
        <time>2020-10-07T10:58:11Z</time>
      </trkpt>
      <trkpt lat="44.33678" lon="6.43098">
        <ele>1748.552</ele>
        <time>2020-10-07T10:58:16Z</time>
      </trkpt>
      <trkpt lat="44.33679" lon="6.43088">
        <ele>1746.828</ele>
        <time>2020-10-07T10:58:22Z</time>
      </trkpt>
      <trkpt lat="44.33682" lon="6.43088">
        <ele>1743.789</ele>
        <time>2020-10-07T10:58:27Z</time>
      </trkpt>
      <trkpt lat="44.33682" lon="6.43087">
        <ele>1741.951</ele>
        <time>2020-10-07T10:58:33Z</time>
      </trkpt>
      <trkpt lat="44.33677" lon="6.4308">
        <ele>1740.542</ele>
        <time>2020-10-07T10:58:38Z</time>
      </trkpt>
      <trkpt lat="44.33679" lon="6.43074">
        <ele>1738.16</ele>
        <time>2020-10-07T10:58:44Z</time>
      </trkpt>
      <trkpt lat="44.33684" lon="6.43066">
        <ele>1745.327</ele>
        <time>2020-10-07T10:58:50Z</time>
      </trkpt>
      <trkpt lat="44.33685" lon="6.4306">
        <ele>1747.39</ele>
        <time>2020-10-07T10:58:55Z</time>
      </trkpt>
      <trkpt lat="44.33686" lon="6.43052">
        <ele>1744.744</ele>
        <time>2020-10-07T10:59:01Z</time>
      </trkpt>
      <trkpt lat="44.33682" lon="6.43049">
        <ele>1746.992</ele>
        <time>2020-10-07T10:59:06Z</time>
      </trkpt>
      <trkpt lat="44.33678" lon="6.43045">
        <ele>1743.506</ele>
        <time>2020-10-07T10:59:12Z</time>
      </trkpt>
      <trkpt lat="44.33677" lon="6.43045">
        <ele>1741.254</ele>
        <time>2020-10-07T10:59:17Z</time>
      </trkpt>
      <trkpt lat="44.33679" lon="6.43036">
        <ele>1742.934</ele>
        <time>2020-10-07T10:59:22Z</time>
      </trkpt>
      <trkpt lat="44.33677" lon="6.43028">
        <ele>1746.387</ele>
        <time>2020-10-07T10:59:28Z</time>
      </trkpt>
      <trkpt lat="44.33679" lon="6.4302">
        <ele>1745.485</ele>
        <time>2020-10-07T10:59:34Z</time>
      </trkpt>
      <trkpt lat="44.33678" lon="6.4301">
        <ele>1727.376</ele>
        <time>2020-10-07T10:59:40Z</time>
      </trkpt>
      <trkpt lat="44.33674" lon="6.43002">
        <ele>1739.414</ele>
        <time>2020-10-07T10:59:45Z</time>
      </trkpt>
      <trkpt lat="44.33679" lon="6.42997">
        <ele>1739.383</ele>
        <time>2020-10-07T10:59:51Z</time>
      </trkpt>
      <trkpt lat="44.3368" lon="6.42989">
        <ele>1738.31</ele>
        <time>2020-10-07T10:59:56Z</time>
      </trkpt>
      <trkpt lat="44.33677" lon="6.4298">
        <ele>1736.344</ele>
        <time>2020-10-07T11:00:01Z</time>
      </trkpt>
      <trkpt lat="44.33675" lon="6.42971">
        <ele>1736.857</ele>
        <time>2020-10-07T11:00:07Z</time>
      </trkpt>
      <trkpt lat="44.33666" lon="6.42963">
        <ele>1735.204</ele>
        <time>2020-10-07T11:00:13Z</time>
      </trkpt>
      <trkpt lat="44.3366" lon="6.42962">
        <ele>1735.514</ele>
        <time>2020-10-07T11:00:18Z</time>
      </trkpt>
      <trkpt lat="44.33662" lon="6.42958">
        <ele>1735.62</ele>
        <time>2020-10-07T11:00:23Z</time>
      </trkpt>
      <trkpt lat="44.33659" lon="6.42959">
        <ele>1733.188</ele>
        <time>2020-10-07T11:00:29Z</time>
      </trkpt>
      <trkpt lat="44.33655" lon="6.42957">
        <ele>1734.085</ele>
        <time>2020-10-07T11:00:35Z</time>
      </trkpt>
      <trkpt lat="44.33649" lon="6.42955">
        <ele>1735.093</ele>
        <time>2020-10-07T11:00:40Z</time>
      </trkpt>
      <trkpt lat="44.33648" lon="6.42952">
        <ele>1734.027</ele>
        <time>2020-10-07T11:00:46Z</time>
      </trkpt>
      <trkpt lat="44.33648" lon="6.42947">
        <ele>1736.013</ele>
        <time>2020-10-07T11:00:52Z</time>
      </trkpt>
      <trkpt lat="44.33649" lon="6.42943">
        <ele>1736.633</ele>
        <time>2020-10-07T11:00:57Z</time>
      </trkpt>
      <trkpt lat="44.33651" lon="6.42942">
        <ele>1738.323</ele>
        <time>2020-10-07T11:01:03Z</time>
      </trkpt>
      <trkpt lat="44.3365" lon="6.42941">
        <ele>1590.872</ele>
        <time>2020-10-07T11:01:08Z</time>
      </trkpt>
      <trkpt lat="44.3365" lon="6.4294">
        <ele>1678.967</ele>
        <time>2020-10-07T11:01:14Z</time>
      </trkpt>
      <trkpt lat="44.3365" lon="6.42937">
        <ele>1715.972</ele>
        <time>2020-10-07T11:01:20Z</time>
      </trkpt>
      <trkpt lat="44.33645" lon="6.42931">
        <ele>1727.792</ele>
        <time>2020-10-07T11:01:26Z</time>
      </trkpt>
      <trkpt lat="44.33648" lon="6.42928">
        <ele>1730.83</ele>
        <time>2020-10-07T11:01:32Z</time>
      </trkpt>
      <trkpt lat="44.33648" lon="6.42923">
        <ele>1731.71</ele>
        <time>2020-10-07T11:01:37Z</time>
      </trkpt>
      <trkpt lat="44.3365" lon="6.42915">
        <ele>1730.853</ele>
        <time>2020-10-07T11:01:43Z</time>
      </trkpt>
      <trkpt lat="44.33654" lon="6.4291">
        <ele>1733.406</ele>
        <time>2020-10-07T11:01:48Z</time>
      </trkpt>
      <trkpt lat="44.33657" lon="6.42906">
        <ele>1736.35</ele>
        <time>2020-10-07T11:01:54Z</time>
      </trkpt>
      <trkpt lat="44.33658" lon="6.42905">
        <ele>1737.163</ele>
        <time>2020-10-07T11:01:59Z</time>
      </trkpt>
      <trkpt lat="44.33655" lon="6.42904">
        <ele>1735.766</ele>
        <time>2020-10-07T11:02:04Z</time>
      </trkpt>
      <trkpt lat="44.33654" lon="6.42904">
        <ele>1735.369</ele>
        <time>2020-10-07T11:02:10Z</time>
      </trkpt>
      <trkpt lat="44.33655" lon="6.42906">
        <ele>1734.668</ele>
        <time>2020-10-07T11:02:15Z</time>
      </trkpt>
      <trkpt lat="44.33655" lon="6.42904">
        <ele>1734.195</ele>
        <time>2020-10-07T11:02:21Z</time>
      </trkpt>
      <trkpt lat="44.33647" lon="6.42886">
        <ele>1736.905</ele>
        <time>2020-10-07T11:02:27Z</time>
      </trkpt>
      <trkpt lat="44.33647" lon="6.42891">
        <ele>1736.968</ele>
        <time>2020-10-07T11:02:33Z</time>
      </trkpt>
      <trkpt lat="44.33645" lon="6.42896">
        <ele>1734.896</ele>
        <time>2020-10-07T11:02:39Z</time>
      </trkpt>
      <trkpt lat="44.33645" lon="6.42898">
        <ele>1735.034</ele>
        <time>2020-10-07T11:02:45Z</time>
      </trkpt>
      <trkpt lat="44.33648" lon="6.429">
        <ele>1733.622</ele>
        <time>2020-10-07T11:02:51Z</time>
      </trkpt>
      <trkpt lat="44.33646" lon="6.429">
        <ele>1735.494</ele>
        <time>2020-10-07T11:02:57Z</time>
      </trkpt>
      <trkpt lat="44.33646" lon="6.42901">
        <ele>1735.545</ele>
        <time>2020-10-07T11:03:03Z</time>
      </trkpt>
      <trkpt lat="44.33644" lon="6.42901">
        <ele>1736.189</ele>
        <time>2020-10-07T11:03:08Z</time>
      </trkpt>
      <trkpt lat="44.33646" lon="6.42904">
        <ele>1732.252</ele>
        <time>2020-10-07T11:03:13Z</time>
      </trkpt>
      <trkpt lat="44.33648" lon="6.42904">
        <ele>1732.481</ele>
        <time>2020-10-07T11:03:19Z</time>
      </trkpt>
      <trkpt lat="44.33647" lon="6.42905">
        <ele>1732.73</ele>
        <time>2020-10-07T11:03:24Z</time>
      </trkpt>
      <trkpt lat="44.33646" lon="6.42905">
        <ele>1735.15</ele>
        <time>2020-10-07T11:03:30Z</time>
      </trkpt>
      <trkpt lat="44.33646" lon="6.42905">
        <ele>1736.607</ele>
        <time>2020-10-07T11:03:35Z</time>
      </trkpt>
      <trkpt lat="44.33651" lon="6.42907">
        <ele>1728.152</ele>
        <time>2020-10-07T11:03:40Z</time>
      </trkpt>
      <trkpt lat="44.33657" lon="6.42908">
        <ele>1728.921</ele>
        <time>2020-10-07T11:03:46Z</time>
      </trkpt>
      <trkpt lat="44.33658" lon="6.42908">
        <ele>1728.928</ele>
        <time>2020-10-07T11:03:52Z</time>
      </trkpt>
      <trkpt lat="44.33658" lon="6.42908">
        <ele>1728.958</ele>
        <time>2020-10-07T11:03:57Z</time>
      </trkpt>
      <trkpt lat="44.33655" lon="6.42911">
        <ele>1735.757</ele>
        <time>2020-10-07T11:04:03Z</time>
      </trkpt>
      <trkpt lat="44.33653" lon="6.42911">
        <ele>1735.147</ele>
        <time>2020-10-07T11:04:09Z</time>
      </trkpt>
      <trkpt lat="44.33649" lon="6.42906">
        <ele>1735.111</ele>
        <time>2020-10-07T11:04:15Z</time>
      </trkpt>
      <trkpt lat="44.33647" lon="6.42903">
        <ele>1736.38</ele>
        <time>2020-10-07T11:04:20Z</time>
      </trkpt>
      <trkpt lat="44.33647" lon="6.42903">
        <ele>1735.157</ele>
        <time>2020-10-07T11:04:26Z</time>
      </trkpt>
      <trkpt lat="44.3365" lon="6.42906">
        <ele>1739.383</ele>
        <time>2020-10-07T11:04:32Z</time>
      </trkpt>
      <trkpt lat="44.3365" lon="6.42905">
        <ele>1739.123</ele>
        <time>2020-10-07T11:04:37Z</time>
      </trkpt>
      <trkpt lat="44.3365" lon="6.42905">
        <ele>1739.967</ele>
        <time>2020-10-07T11:04:42Z</time>
      </trkpt>
      <trkpt lat="44.3365" lon="6.42905">
        <ele>1740.034</ele>
        <time>2020-10-07T11:04:48Z</time>
      </trkpt>
      <trkpt lat="44.33649" lon="6.42905">
        <ele>1740.054</ele>
        <time>2020-10-07T11:04:53Z</time>
      </trkpt>
      <trkpt lat="44.33649" lon="6.42905">
        <ele>1740.061</ele>
        <time>2020-10-07T11:04:58Z</time>
      </trkpt>
      <trkpt lat="44.33649" lon="6.42905">
        <ele>1740.074</ele>
        <time>2020-10-07T11:05:04Z</time>
      </trkpt>
      <trkpt lat="44.33649" lon="6.42905">
        <ele>1740.073</ele>
        <time>2020-10-07T11:05:10Z</time>
      </trkpt>
      <trkpt lat="44.33649" lon="6.42905">
        <ele>1740.069</ele>
        <time>2020-10-07T11:05:15Z</time>
      </trkpt>
      <trkpt lat="44.33649" lon="6.42905">
        <ele>1740.076</ele>
        <time>2020-10-07T11:05:21Z</time>
      </trkpt>
      <trkpt lat="44.3365" lon="6.42905">
        <ele>1738.894</ele>
        <time>2020-10-07T11:05:26Z</time>
      </trkpt>
      <trkpt lat="44.33651" lon="6.42906">
        <ele>1742.183</ele>
        <time>2020-10-07T11:05:32Z</time>
      </trkpt>
      <trkpt lat="44.33652" lon="6.42907">
        <ele>1741.627</ele>
        <time>2020-10-07T11:05:37Z</time>
      </trkpt>
      <trkpt lat="44.33653" lon="6.42908">
        <ele>1741.512</ele>
        <time>2020-10-07T11:05:43Z</time>
      </trkpt>
      <trkpt lat="44.33654" lon="6.4291">
        <ele>1737.522</ele>
        <time>2020-10-07T11:05:49Z</time>
      </trkpt>
      <trkpt lat="44.33651" lon="6.42903">
        <ele>1734.559</ele>
        <time>2020-10-07T11:05:54Z</time>
      </trkpt>
      <trkpt lat="44.33652" lon="6.42901">
        <ele>1731.639</ele>
        <time>2020-10-07T11:06:00Z</time>
      </trkpt>
      <trkpt lat="44.33651" lon="6.429">
        <ele>1730.431</ele>
        <time>2020-10-07T11:06:05Z</time>
      </trkpt>
      <trkpt lat="44.3365" lon="6.42899">
        <ele>1730.78</ele>
        <time>2020-10-07T11:06:11Z</time>
      </trkpt>
      <trkpt lat="44.33647" lon="6.42893">
        <ele>1726.938</ele>
        <time>2020-10-07T11:06:16Z</time>
      </trkpt>
      <trkpt lat="44.33644" lon="6.42888">
        <ele>1728.081</ele>
        <time>2020-10-07T11:06:22Z</time>
      </trkpt>
      <trkpt lat="44.33642" lon="6.42884">
        <ele>1728.482</ele>
        <time>2020-10-07T11:06:27Z</time>
      </trkpt>
      <trkpt lat="44.3364" lon="6.42878">
        <ele>1730.867</ele>
        <time>2020-10-07T11:06:32Z</time>
      </trkpt>
      <trkpt lat="44.3364" lon="6.42873">
        <ele>1733.462</ele>
        <time>2020-10-07T11:06:38Z</time>
      </trkpt>
      <trkpt lat="44.33637" lon="6.42869">
        <ele>1731.9</ele>
        <time>2020-10-07T11:06:44Z</time>
      </trkpt>
      <trkpt lat="44.33635" lon="6.42863">
        <ele>1731.92</ele>
        <time>2020-10-07T11:06:50Z</time>
      </trkpt>
      <trkpt lat="44.33632" lon="6.42859">
        <ele>1730.628</ele>
        <time>2020-10-07T11:06:56Z</time>
      </trkpt>
      <trkpt lat="44.33631" lon="6.42852">
        <ele>1729.864</ele>
        <time>2020-10-07T11:07:01Z</time>
      </trkpt>
      <trkpt lat="44.3363" lon="6.42846">
        <ele>1730.887</ele>
        <time>2020-10-07T11:07:07Z</time>
      </trkpt>
      <trkpt lat="44.33627" lon="6.42838">
        <ele>1731.349</ele>
        <time>2020-10-07T11:07:13Z</time>
      </trkpt>
      <trkpt lat="44.33626" lon="6.42829">
        <ele>1728.735</ele>
        <time>2020-10-07T11:07:19Z</time>
      </trkpt>
      <trkpt lat="44.33626" lon="6.4282">
        <ele>1730.271</ele>
        <time>2020-10-07T11:07:25Z</time>
      </trkpt>
      <trkpt lat="44.33627" lon="6.42816">
        <ele>1730.758</ele>
        <time>2020-10-07T11:07:30Z</time>
      </trkpt>
      <trkpt lat="44.33627" lon="6.42813">
        <ele>1729.027</ele>
        <time>2020-10-07T11:07:36Z</time>
      </trkpt>
      <trkpt lat="44.33629" lon="6.42806">
        <ele>1726.741</ele>
        <time>2020-10-07T11:07:42Z</time>
      </trkpt>
      <trkpt lat="44.33625" lon="6.42802">
        <ele>1725.071</ele>
        <time>2020-10-07T11:07:48Z</time>
      </trkpt>
      <trkpt lat="44.33627" lon="6.42796">
        <ele>1726.198</ele>
        <time>2020-10-07T11:07:53Z</time>
      </trkpt>
      <trkpt lat="44.33628" lon="6.42795">
        <ele>1724.54</ele>
        <time>2020-10-07T11:07:58Z</time>
      </trkpt>
      <trkpt lat="44.33626" lon="6.4279">
        <ele>1723.762</ele>
        <time>2020-10-07T11:08:04Z</time>
      </trkpt>
      <trkpt lat="44.33626" lon="6.42786">
        <ele>1726.262</ele>
        <time>2020-10-07T11:08:09Z</time>
      </trkpt>
      <trkpt lat="44.33624" lon="6.42774">
        <ele>1729.751</ele>
        <time>2020-10-07T11:08:14Z</time>
      </trkpt>
      <trkpt lat="44.33624" lon="6.42766">
        <ele>1729.329</ele>
        <time>2020-10-07T11:08:20Z</time>
      </trkpt>
      <trkpt lat="44.33625" lon="6.42764">
        <ele>1729.532</ele>
        <time>2020-10-07T11:08:26Z</time>
      </trkpt>
      <trkpt lat="44.33626" lon="6.42761">
        <ele>1728.047</ele>
        <time>2020-10-07T11:08:32Z</time>
      </trkpt>
      <trkpt lat="44.33625" lon="6.42755">
        <ele>1727.575</ele>
        <time>2020-10-07T11:08:37Z</time>
      </trkpt>
      <trkpt lat="44.33625" lon="6.42752">
        <ele>1726.992</ele>
        <time>2020-10-07T11:08:42Z</time>
      </trkpt>
      <trkpt lat="44.33627" lon="6.42748">
        <ele>1725.621</ele>
        <time>2020-10-07T11:08:47Z</time>
      </trkpt>
      <trkpt lat="44.33625" lon="6.42743">
        <ele>1721.83</ele>
        <time>2020-10-07T11:08:53Z</time>
      </trkpt>
      <trkpt lat="44.33625" lon="6.42737">
        <ele>1724.583</ele>
        <time>2020-10-07T11:08:58Z</time>
      </trkpt>
      <trkpt lat="44.33626" lon="6.42733">
        <ele>1723.134</ele>
        <time>2020-10-07T11:09:04Z</time>
      </trkpt>
      <trkpt lat="44.33626" lon="6.42729">
        <ele>1724.095</ele>
        <time>2020-10-07T11:09:09Z</time>
      </trkpt>
      <trkpt lat="44.33627" lon="6.42727">
        <ele>1723.862</ele>
        <time>2020-10-07T11:09:14Z</time>
      </trkpt>
      <trkpt lat="44.33628" lon="6.42725">
        <ele>1723.331</ele>
        <time>2020-10-07T11:09:20Z</time>
      </trkpt>
      <trkpt lat="44.33628" lon="6.42724">
        <ele>1720.808</ele>
        <time>2020-10-07T11:09:26Z</time>
      </trkpt>
      <trkpt lat="44.33627" lon="6.42724">
        <ele>1717.072</ele>
        <time>2020-10-07T11:09:32Z</time>
      </trkpt>
      <trkpt lat="44.33628" lon="6.42725">
        <ele>1715.579</ele>
        <time>2020-10-07T11:09:38Z</time>
      </trkpt>
      <trkpt lat="44.33628" lon="6.42725">
        <ele>1715.378</ele>
        <time>2020-10-07T11:09:43Z</time>
      </trkpt>
      <trkpt lat="44.33628" lon="6.42725">
        <ele>1715.007</ele>
        <time>2020-10-07T11:09:48Z</time>
      </trkpt>
      <trkpt lat="44.33628" lon="6.42725">
        <ele>1715.008</ele>
        <time>2020-10-07T11:09:54Z</time>
      </trkpt>
      <trkpt lat="44.33628" lon="6.42725">
        <ele>1714.992</ele>
        <time>2020-10-07T11:09:59Z</time>
      </trkpt>
      <trkpt lat="44.33627" lon="6.42726">
        <ele>1710.12</ele>
        <time>2020-10-07T11:10:05Z</time>
      </trkpt>
      <trkpt lat="44.33628" lon="6.4273">
        <ele>1706.035</ele>
        <time>2020-10-07T11:10:11Z</time>
      </trkpt>
      <trkpt lat="44.33628" lon="6.4273">
        <ele>1707</ele>
        <time>2020-10-07T11:10:17Z</time>
      </trkpt>
      <trkpt lat="44.33628" lon="6.42729">
        <ele>1706.186</ele>
        <time>2020-10-07T11:10:23Z</time>
      </trkpt>
      <trkpt lat="44.33627" lon="6.4273">
        <ele>1704.668</ele>
        <time>2020-10-07T11:10:28Z</time>
      </trkpt>
      <trkpt lat="44.33626" lon="6.42731">
        <ele>1704.839</ele>
        <time>2020-10-07T11:10:34Z</time>
      </trkpt>
      <trkpt lat="44.33626" lon="6.42731">
        <ele>1704.668</ele>
        <time>2020-10-07T11:10:39Z</time>
      </trkpt>
      <trkpt lat="44.33627" lon="6.42726">
        <ele>1706.197</ele>
        <time>2020-10-07T11:10:45Z</time>
      </trkpt>
      <trkpt lat="44.33627" lon="6.42727">
        <ele>1706.911</ele>
        <time>2020-10-07T11:10:51Z</time>
      </trkpt>
      <trkpt lat="44.33626" lon="6.42727">
        <ele>1708.66</ele>
        <time>2020-10-07T11:10:57Z</time>
      </trkpt>
      <trkpt lat="44.33626" lon="6.42726">
        <ele>1708.869</ele>
        <time>2020-10-07T11:11:03Z</time>
      </trkpt>
      <trkpt lat="44.33627" lon="6.42724">
        <ele>1711.514</ele>
        <time>2020-10-07T11:11:08Z</time>
      </trkpt>
      <trkpt lat="44.33624" lon="6.42723">
        <ele>1711.251</ele>
        <time>2020-10-07T11:11:14Z</time>
      </trkpt>
      <trkpt lat="44.33624" lon="6.42723">
        <ele>1711.475</ele>
        <time>2020-10-07T11:11:20Z</time>
      </trkpt>
      <trkpt lat="44.33624" lon="6.42723">
        <ele>1711.599</ele>
        <time>2020-10-07T11:11:25Z</time>
      </trkpt>
      <trkpt lat="44.33624" lon="6.42723">
        <ele>1711.659</ele>
        <time>2020-10-07T11:11:30Z</time>
      </trkpt>
      <trkpt lat="44.33625" lon="6.42723">
        <ele>1711.481</ele>
        <time>2020-10-07T11:11:36Z</time>
      </trkpt>
      <trkpt lat="44.33626" lon="6.42722">
        <ele>1710.985</ele>
        <time>2020-10-07T11:11:42Z</time>
      </trkpt>
      <trkpt lat="44.33626" lon="6.42722">
        <ele>1710.855</ele>
        <time>2020-10-07T11:11:47Z</time>
      </trkpt>
      <trkpt lat="44.33626" lon="6.42722">
        <ele>1711.016</ele>
        <time>2020-10-07T11:11:53Z</time>
      </trkpt>
      <trkpt lat="44.33626" lon="6.42722">
        <ele>1711.048</ele>
        <time>2020-10-07T11:11:58Z</time>
      </trkpt>
      <trkpt lat="44.33626" lon="6.42722">
        <ele>1711.09</ele>
        <time>2020-10-07T11:12:04Z</time>
      </trkpt>
      <trkpt lat="44.33627" lon="6.42723">
        <ele>1711.766</ele>
        <time>2020-10-07T11:12:09Z</time>
      </trkpt>
      <trkpt lat="44.33626" lon="6.42723">
        <ele>1716.065</ele>
        <time>2020-10-07T11:12:14Z</time>
      </trkpt>
      <trkpt lat="44.33627" lon="6.42722">
        <ele>1717.316</ele>
        <time>2020-10-07T11:12:20Z</time>
      </trkpt>
      <trkpt lat="44.33628" lon="6.42722">
        <ele>1717.318</ele>
        <time>2020-10-07T11:12:25Z</time>
      </trkpt>
      <trkpt lat="44.33627" lon="6.42723">
        <ele>1716.655</ele>
        <time>2020-10-07T11:12:30Z</time>
      </trkpt>
      <trkpt lat="44.33627" lon="6.4272">
        <ele>1714.056</ele>
        <time>2020-10-07T11:12:36Z</time>
      </trkpt>
      <trkpt lat="44.33628" lon="6.42717">
        <ele>1715.627</ele>
        <time>2020-10-07T11:12:41Z</time>
      </trkpt>
      <trkpt lat="44.33629" lon="6.42715">
        <ele>1714.49</ele>
        <time>2020-10-07T11:12:47Z</time>
      </trkpt>
      <trkpt lat="44.3363" lon="6.42713">
        <ele>1713.907</ele>
        <time>2020-10-07T11:12:52Z</time>
      </trkpt>
      <trkpt lat="44.33629" lon="6.42712">
        <ele>1715.64</ele>
        <time>2020-10-07T11:12:57Z</time>
      </trkpt>
      <trkpt lat="44.33628" lon="6.42711">
        <ele>1718.738</ele>
        <time>2020-10-07T11:13:03Z</time>
      </trkpt>
      <trkpt lat="44.33628" lon="6.42711">
        <ele>1714.109</ele>
        <time>2020-10-07T11:13:08Z</time>
      </trkpt>
      <trkpt lat="44.33626" lon="6.42712">
        <ele>1711.654</ele>
        <time>2020-10-07T11:13:14Z</time>
      </trkpt>
      <trkpt lat="44.33627" lon="6.4271">
        <ele>1714.834</ele>
        <time>2020-10-07T11:13:19Z</time>
      </trkpt>
      <trkpt lat="44.3363" lon="6.42709">
        <ele>1718.036</ele>
        <time>2020-10-07T11:13:25Z</time>
      </trkpt>
      <trkpt lat="44.33631" lon="6.42708">
        <ele>1719.533</ele>
        <time>2020-10-07T11:13:31Z</time>
      </trkpt>
      <trkpt lat="44.33632" lon="6.42708">
        <ele>1721.57</ele>
        <time>2020-10-07T11:13:36Z</time>
      </trkpt>
      <trkpt lat="44.3363" lon="6.42701">
        <ele>1722.241</ele>
        <time>2020-10-07T11:13:41Z</time>
      </trkpt>
      <trkpt lat="44.3363" lon="6.42696">
        <ele>1723.846</ele>
        <time>2020-10-07T11:13:47Z</time>
      </trkpt>
      <trkpt lat="44.3363" lon="6.42691">
        <ele>1724.966</ele>
        <time>2020-10-07T11:13:53Z</time>
      </trkpt>
      <trkpt lat="44.33632" lon="6.42691">
        <ele>1721.267</ele>
        <time>2020-10-07T11:13:58Z</time>
      </trkpt>
      <trkpt lat="44.33632" lon="6.42691">
        <ele>1720.503</ele>
        <time>2020-10-07T11:14:03Z</time>
      </trkpt>
      <trkpt lat="44.33633" lon="6.42691">
        <ele>1720.491</ele>
        <time>2020-10-07T11:14:09Z</time>
      </trkpt>
      <trkpt lat="44.33633" lon="6.42687">
        <ele>1717.429</ele>
        <time>2020-10-07T11:14:15Z</time>
      </trkpt>
      <trkpt lat="44.33633" lon="6.42686">
        <ele>1718.347</ele>
        <time>2020-10-07T11:14:21Z</time>
      </trkpt>
      <trkpt lat="44.33634" lon="6.42686">
        <ele>1718.825</ele>
        <time>2020-10-07T11:14:27Z</time>
      </trkpt>
      <trkpt lat="44.33634" lon="6.42686">
        <ele>1718.817</ele>
        <time>2020-10-07T11:14:33Z</time>
      </trkpt>
      <trkpt lat="44.33633" lon="6.42687">
        <ele>1722.125</ele>
        <time>2020-10-07T11:14:38Z</time>
      </trkpt>
      <trkpt lat="44.3363" lon="6.42687">
        <ele>1722.621</ele>
        <time>2020-10-07T11:14:43Z</time>
      </trkpt>
      <trkpt lat="44.33629" lon="6.42687">
        <ele>1721.91</ele>
        <time>2020-10-07T11:14:49Z</time>
      </trkpt>
      <trkpt lat="44.33627" lon="6.42691">
        <ele>1723.223</ele>
        <time>2020-10-07T11:14:55Z</time>
      </trkpt>
      <trkpt lat="44.33627" lon="6.42693">
        <ele>1724.898</ele>
        <time>2020-10-07T11:15:01Z</time>
      </trkpt>
      <trkpt lat="44.33625" lon="6.42694">
        <ele>1723.266</ele>
        <time>2020-10-07T11:15:06Z</time>
      </trkpt>
      <trkpt lat="44.33623" lon="6.42698">
        <ele>1723.901</ele>
        <time>2020-10-07T11:15:12Z</time>
      </trkpt>
      <trkpt lat="44.33622" lon="6.42701">
        <ele>1722.849</ele>
        <time>2020-10-07T11:15:17Z</time>
      </trkpt>
      <trkpt lat="44.33623" lon="6.42705">
        <ele>1721.323</ele>
        <time>2020-10-07T11:15:23Z</time>
      </trkpt>
      <trkpt lat="44.33623" lon="6.42706">
        <ele>1721.906</ele>
        <time>2020-10-07T11:15:29Z</time>
      </trkpt>
      <trkpt lat="44.33623" lon="6.42706">
        <ele>1722</ele>
        <time>2020-10-07T11:15:35Z</time>
      </trkpt>
      <trkpt lat="44.33623" lon="6.42706">
        <ele>1722.023</ele>
        <time>2020-10-07T11:15:40Z</time>
      </trkpt>
      <trkpt lat="44.33623" lon="6.42706">
        <ele>1721.991</ele>
        <time>2020-10-07T11:15:46Z</time>
      </trkpt>
      <trkpt lat="44.33623" lon="6.42706">
        <ele>1721.966</ele>
        <time>2020-10-07T11:15:52Z</time>
      </trkpt>
      <trkpt lat="44.33623" lon="6.42706">
        <ele>1721.973</ele>
        <time>2020-10-07T11:15:58Z</time>
      </trkpt>
      <trkpt lat="44.33623" lon="6.42706">
        <ele>1721.986</ele>
        <time>2020-10-07T11:16:03Z</time>
      </trkpt>
      <trkpt lat="44.33623" lon="6.42706">
        <ele>1721.998</ele>
        <time>2020-10-07T11:16:09Z</time>
      </trkpt>
      <trkpt lat="44.33623" lon="6.42706">
        <ele>1722.01</ele>
        <time>2020-10-07T11:16:15Z</time>
      </trkpt>
      <trkpt lat="44.33622" lon="6.42706">
        <ele>1719.54</ele>
        <time>2020-10-07T11:16:21Z</time>
      </trkpt>
      <trkpt lat="44.33622" lon="6.42707">
        <ele>1720.255</ele>
        <time>2020-10-07T11:16:26Z</time>
      </trkpt>
      <trkpt lat="44.33622" lon="6.42706">
        <ele>1723.394</ele>
        <time>2020-10-07T11:16:31Z</time>
      </trkpt>
      <trkpt lat="44.33622" lon="6.42706">
        <ele>1722.136</ele>
        <time>2020-10-07T11:16:37Z</time>
      </trkpt>
      <trkpt lat="44.33621" lon="6.42708">
        <ele>1721.364</ele>
        <time>2020-10-07T11:16:43Z</time>
      </trkpt>
      <trkpt lat="44.33621" lon="6.42709">
        <ele>1721.233</ele>
        <time>2020-10-07T11:16:49Z</time>
      </trkpt>
      <trkpt lat="44.33621" lon="6.42709">
        <ele>1721.59</ele>
        <time>2020-10-07T11:16:55Z</time>
      </trkpt>
      <trkpt lat="44.33621" lon="6.42709">
        <ele>1721.562</ele>
        <time>2020-10-07T11:17:00Z</time>
      </trkpt>
      <trkpt lat="44.3362" lon="6.42709">
        <ele>1721.565</ele>
        <time>2020-10-07T11:17:05Z</time>
      </trkpt>
      <trkpt lat="44.3362" lon="6.42709">
        <ele>1721.569</ele>
        <time>2020-10-07T11:17:11Z</time>
      </trkpt>
      <trkpt lat="44.3362" lon="6.42709">
        <ele>1721.583</ele>
        <time>2020-10-07T11:17:17Z</time>
      </trkpt>
      <trkpt lat="44.3362" lon="6.42709">
        <ele>1721.543</ele>
        <time>2020-10-07T11:17:23Z</time>
      </trkpt>
      <trkpt lat="44.3362" lon="6.42709">
        <ele>1721.54</ele>
        <time>2020-10-07T11:17:28Z</time>
      </trkpt>
      <trkpt lat="44.3362" lon="6.42709">
        <ele>1721.537</ele>
        <time>2020-10-07T11:17:34Z</time>
      </trkpt>
    </trkseg>
  </trk>
</gpx>